Terminal Aerodrome Forecast
Issued by NWS

Home | Current Version | Previous Version | Text Only | Print | Product List | Glossary On
Versions: 1 2 3 4 5 6 7 8 9 10 11 12 13 14
497
FTUS45 KREV 200535
TAFMMH
TAF
KMMH 200535Z 2006/2106 24011KT P6SM VCSH SCT050 BKN100
     FM201200 29008KT 6SM -RA BKN020 OVC040
     FM201500 26022G35KT 4SM RA BKN015 OVC030 WS020/25050KT
     FM210000 23025G45KT 3SM RA BKN010 OVC025 WS015/25070KT=

USA.gov is the U.S. government's official web portal to all federal, state and local government web resources and services.